sensor_id;sensor_type;location;lat;lon;timestamp;temperature;humidity
21031;DHT22;61072;47.808;7.636;2023-07-16T05:20:31;18.90;99.90
21031;DHT22;61072;47.808;7.636;2023-07-16T05:22:58;18.80;99.90
21031;DHT22;61072;47.808;7.636;2023-07-16T05:25:25;18.90;99.90
21031;DHT22;61072;47.808;7.636;2023-07-16T05:27:52;19.00;99.90
21031;DHT22;61072;47.808;7.636;2023-07-16T05:30:18;19.10;99.90
21031;DHT22;61072;47.808;7.636;2023-07-16T05:32:45;19.10;99.90
21031;DHT22;61072;47.808;7.636;2023-07-16T05:35:12;19.10;99.90
21031;DHT22;61072;47.808;7.636;2023-07-16T05:37:39;19.10;99.90
21031;DHT22;61072;47.808;7.636;2023-07-16T05:40:06;19.10;99.90
21031;DHT22;61072;47.808;7.636;2023-07-16T05:42:35;19.20;99.90
21031;DHT22;61072;47.808;7.636;2023-07-16T05:45:03;19.10;99.90
21031;DHT22;61072;47.808;7.636;2023-07-16T05:47:30;19.20;99.90
21031;DHT22;61072;47.808;7.636;2023-07-16T05:49:57;19.20;99.90
21031;DHT22;61072;47.808;7.636;2023-07-16T05:52:24;19.30;99.90
21031;DHT22;61072;47.808;7.636;2023-07-16T05:54:50;19.40;99.90
21031;DHT22;61072;47.808;7.636;2023-07-16T05:57:17;19.50;99.90
21031;DHT22;61072;47.808;7.636;2023-07-16T05:59:44;19.50;99.90
21031;DHT22;61072;47.808;7.636;2023-07-16T06:02:10;19.60;99.90
21031;DHT22;61072;47.808;7.636;2023-07-16T06:04:37;19.70;99.90
21031;DHT22;61072;47.808;7.636;2023-07-16T06:07:04;19.70;99.90
21031;DHT22;61072;47.808;7.636;2023-07-16T06:09:31;19.80;99.90
21031;DHT22;61072;47.808;7.636;2023-07-16T06:11:58;19.90;99.90
21031;DHT22;61072;47.808;7.636;2023-07-16T06:14:25;20.00;99.90
21031;DHT22;61072;47.808;7.636;2023-07-16T06:16:51;20.00;99.90
21031;DHT22;61072;47.808;7.636;2023-07-16T06:19:19;20.10;99.90
21031;DHT22;61072;47.808;7.636;2023-07-16T06:21:46;20.10;99.90
21031;DHT22;61072;47.808;7.636;2023-07-16T06:24:13;20.20;99.90
21031;DHT22;61072;47.808;7.636;2023-07-16T06:26:43;20.30;99.90
21031;DHT22;61072;47.808;7.636;2023-07-16T06:29:09;20.40;99.90
21031;DHT22;61072;47.808;7.636;2023-07-16T06:31:36;20.50;99.90
21031;DHT22;61072;47.808;7.636;2023-07-16T06:34:03;20.60;99.90
21031;DHT22;61072;47.808;7.636;2023-07-16T06:36:30;20.80;99.90
21031;DHT22;61072;47.808;7.636;2023-07-16T06:38:56;20.90;99.90
21031;DHT22;61072;47.808;7.636;2023-07-16T06:41:23;21.00;99.90
21031;DHT22;61072;47.808;7.636;2023-07-16T06:43:50;21.10;99.90
21031;DHT22;61072;47.808;7.636;2023-07-16T06:46:16;21.20;99.90
21031;DHT22;61072;47.808;7.636;2023-07-16T06:48:44;21.20;99.90
21031;DHT22;61072;47.808;7.636;2023-07-16T06:51:10;21.20;99.90
21031;DHT22;61072;47.808;7.636;2023-07-16T06:53:37;21.30;99.90
21031;DHT22;61072;47.808;7.636;2023-07-16T06:56:04;21.40;99.90
21031;DHT22;61072;47.808;7.636;2023-07-16T06:58:32;21.40;99.90
21031;DHT22;61072;47.808;7.636;2023-07-16T07:00:59;21.50;99.90
21031;DHT22;61072;47.808;7.636;2023-07-16T07:03:26;21.50;99.90
21031;DHT22;61072;47.808;7.636;2023-07-16T07:05:53;21.60;99.90
21031;DHT22;61072;47.808;7.636;2023-07-16T07:08:20;21.70;99.90
21031;DHT22;61072;47.808;7.636;2023-07-16T07:10:49;21.70;99.90
21031;DHT22;61072;47.808;7.636;2023-07-16T07:13:15;21.80;99.90
21031;DHT22;61072;47.808;7.636;2023-07-16T07:15:42;21.90;99.90
21031;DHT22;61072;47.808;7.636;2023-07-16T07:18:09;21.90;99.90
21031;DHT22;61072;47.808;7.636;2023-07-16T07:20:36;21.90;99.90
21031;DHT22;61072;47.808;7.636;2023-07-16T07:23:03;22.00;99.90
21031;DHT22;61072;47.808;7.636;2023-07-16T07:25:31;22.10;99.90
21031;DHT22;61072;47.808;7.636;2023-07-16T07:27:58;22.10;99.90
21031;DHT22;61072;47.808;7.636;2023-07-16T07:30:25;22.10;99.90
21031;DHT22;61072;47.808;7.636;2023-07-16T07:32:52;22.10;99.90
21031;DHT22;61072;47.808;7.636;2023-07-16T07:35:19;22.10;99.90
21031;DHT22;61072;47.808;7.636;2023-07-16T07:37:45;22.10;99.90
21031;DHT22;61072;47.808;7.636;2023-07-16T07:40:12;22.20;99.90
21031;DHT22;61072;47.808;7.636;2023-07-16T07:42:39;22.30;99.90
21031;DHT22;61072;47.808;7.636;2023-07-16T07:45:06;22.30;99.90
21031;DHT22;61072;47.808;7.636;2023-07-16T07:47:33;22.30;99.90
21031;DHT22;61072;47.808;7.636;2023-07-16T07:50:00;22.40;99.90
21031;DHT22;61072;47.808;7.636;2023-07-16T07:52:27;22.30;99.90
21031;DHT22;61072;47.808;7.636;2023-07-16T07:54:54;22.20;99.90
21031;DHT22;61072;47.808;7.636;2023-07-16T07:57:21;22.20;99.90
21031;DHT22;61072;47.808;7.636;2023-07-16T07:59:47;22.20;99.90
21031;DHT22;61072;47.808;7.636;2023-07-16T08:02:14;22.10;99.90
21031;DHT22;61072;47.808;7.636;2023-07-16T08:04:41;22.10;99.90
21031;DHT22;61072;47.808;7.636;2023-07-16T08:07:08;22.10;99.90
21031;DHT22;61072;47.808;7.636;2023-07-16T08:09:37;22.10;99.90
21031;DHT22;61072;47.808;7.636;2023-07-16T08:12:04;22.10;99.90
21031;DHT22;61072;47.808;7.636;2023-07-16T08:14:31;22.20;99.90
21031;DHT22;61072;47.808;7.636;2023-07-16T08:16:57;22.30;99.90
21031;DHT22;61072;47.808;7.636;2023-07-16T08:19:24;22.40;99.90
21031;DHT22;61072;47.808;7.636;2023-07-16T08:21:51;22.50;99.90
21031;DHT22;61072;47.808;7.636;2023-07-16T08:24:17;22.60;99.90
21031;DHT22;61072;47.808;7.636;2023-07-16T08:26:44;22.70;99.90
21031;DHT22;61072;47.808;7.636;2023-07-16T08:29:11;22.80;99.90
21031;DHT22;61072;47.808;7.636;2023-07-16T08:31:38;22.80;99.90
21031;DHT22;61072;47.808;7.636;2023-07-16T08:34:05;22.90;99.90
21031;DHT22;61072;47.808;7.636;2023-07-16T08:36:33;22.80;99.90
21031;DHT22;61072;47.808;7.636;2023-07-16T08:39:00;22.70;99.90
21031;DHT22;61072;47.808;7.636;2023-07-16T08:41:26;22.70;99.90
21031;DHT22;61072;47.808;7.636;2023-07-16T08:43:54;22.70;99.90
21031;DHT22;61072;47.808;7.636;2023-07-16T08:46:21;22.60;99.90
21031;DHT22;61072;47.808;7.636;2023-07-16T08:48:48;22.60;99.90
21031;DHT22;61072;47.808;7.636;2023-07-16T08:51:15;22.60;99.90
21031;DHT22;61072;47.808;7.636;2023-07-16T08:53:45;22.40;99.90
21031;DHT22;61072;47.808;7.636;2023-07-16T08:56:12;22.50;99.90
21031;DHT22;61072;47.808;7.636;2023-07-16T08:58:38;22.50;99.90
21031;DHT22;61072;47.808;7.636;2023-07-16T09:01:07;22.50;99.90
21031;DHT22;61072;47.808;7.636;2023-07-16T09:03:34;22.50;99.90
21031;DHT22;61072;47.808;7.636;2023-07-16T09:06:02;22.50;99.90
21031;DHT22;61072;47.808;7.636;2023-07-16T09:08:29;22.60;99.90
21031;DHT22;61072;47.808;7.636;2023-07-16T09:10:56;22.70;99.90
21031;DHT22;61072;47.808;7.636;2023-07-16T09:13:24;22.80;99.90
21031;DHT22;61072;47.808;7.636;2023-07-16T09:15:56;22.90;99.90
21031;DHT22;61072;47.808;7.636;2023-07-16T09:18:25;23.00;99.90
21031;DHT22;61072;47.808;7.636;2023-07-16T09:20:59;23.10;99.90
21031;DHT22;61072;47.808;7.636;2023-07-16T09:23:30;23.10;99.90
21031;DHT22;61072;47.808;7.636;2023-07-16T09:25:57;23.20;99.90
21031;DHT22;61072;47.808;7.636;2023-07-16T09:28:24;23.20;99.90
21031;DHT22;61072;47.808;7.636;2023-07-16T09:30:51;23.30;99.90
21031;DHT22;61072;47.808;7.636;2023-07-16T09:33:20;23.20;99.90
21031;DHT22;61072;47.808;7.636;2023-07-16T09:35:49;23.30;99.90
21031;DHT22;61072;47.808;7.636;2023-07-16T09:38:16;23.30;99.90
21031;DHT22;61072;47.808;7.636;2023-07-16T09:40:45;23.30;99.90
21031;DHT22;61072;47.808;7.636;2023-07-16T09:43:12;23.30;99.90
21031;DHT22;61072;47.808;7.636;2023-07-16T09:45:40;23.40;99.90
21031;DHT22;61072;47.808;7.636;2023-07-16T09:48:07;23.50;99.90
21031;DHT22;61072;47.808;7.636;2023-07-16T09:50:36;23.60;99.90
21031;DHT22;61072;47.808;7.636;2023-07-16T09:53:06;23.80;99.90
21031;DHT22;61072;47.808;7.636;2023-07-16T09:55:35;24.00;99.90
21031;DHT22;61072;47.808;7.636;2023-07-16T09:58:06;24.10;99.90
21031;DHT22;61072;47.808;7.636;2023-07-16T10:00:36;24.30;99.90
21031;DHT22;61072;47.808;7.636;2023-07-16T10:03:07;24.30;99.90
21031;DHT22;61072;47.808;7.636;2023-07-16T10:05:37;24.30;99.90
21031;DHT22;61072;47.808;7.636;2023-07-16T10:08:04;24.30;99.90
21031;DHT22;61072;47.808;7.636;2023-07-16T10:10:53;24.30;99.90
21031;DHT22;61072;47.808;7.636;2023-07-16T10:13:23;24.30;99.90
21031;DHT22;61072;47.808;7.636;2023-07-16T10:15:57;24.20;99.90
21031;DHT22;61072;47.808;7.636;2023-07-16T10:18:28;24.10;99.90
21031;DHT22;61072;47.808;7.636;2023-07-16T10:21:06;24.10;99.90
21031;DHT22;61072;47.808;7.636;2023-07-16T10:26:06;23.90;99.90
21031;DHT22;61072;47.808;7.636;2023-07-16T10:28:36;23.90;99.90
21031;DHT22;61072;47.808;7.636;2023-07-16T10:31:03;23.90;99.90
21031;DHT22;61072;47.808;7.636;2023-07-16T10:33:30;23.70;99.90
21031;DHT22;61072;47.808;7.636;2023-07-16T10:35:58;23.70;99.90
21031;DHT22;61072;47.808;7.636;2023-07-16T10:38:27;23.80;99.90
21031;DHT22;61072;47.808;7.636;2023-07-16T10:40:55;23.80;99.90
21031;DHT22;61072;47.808;7.636;2023-07-16T10:43:23;23.90;99.90
21031;DHT22;61072;47.808;7.636;2023-07-16T10:45:51;23.90;99.90
21031;DHT22;61072;47.808;7.636;2023-07-16T10:48:17;23.90;99.90
21031;DHT22;61072;47.808;7.636;2023-07-16T10:50:53;23.90;99.90
21031;DHT22;61072;47.808;7.636;2023-07-16T10:53:21;24.00;99.90
21031;DHT22;61072;47.808;7.636;2023-07-16T10:55:48;24.00;99.90
21031;DHT22;61072;47.808;7.636;2023-07-16T10:58:14;24.00;99.90
21031;DHT22;61072;47.808;7.636;2023-07-16T11:00:41;24.10;99.90
21031;DHT22;61072;47.808;7.636;2023-07-16T11:03:09;24.10;99.90
21031;DHT22;61072;47.808;7.636;2023-07-16T11:05:36;24.30;99.90
21031;DHT22;61072;47.808;7.636;2023-07-16T11:08:03;24.40;99.90
21031;DHT22;61072;47.808;7.636;2023-07-16T11:10:29;24.50;99.90
21031;DHT22;61072;47.808;7.636;2023-07-16T11:12:57;24.50;99.90
21031;DHT22;61072;47.808;7.636;2023-07-16T11:15:35;24.50;99.90
21031;DHT22;61072;47.808;7.636;2023-07-16T11:18:02;24.60;99.90
21031;DHT22;61072;47.808;7.636;2023-07-16T11:20:30;24.70;99.90
21031;DHT22;61072;47.808;7.636;2023-07-16T11:23:00;24.80;99.90
21031;DHT22;61072;47.808;7.636;2023-07-16T11:25:29;24.90;99.90
21031;DHT22;61072;47.808;7.636;2023-07-16T11:27:56;25.00;99.90
21031;DHT22;61072;47.808;7.636;2023-07-16T11:30:24;25.00;99.90
21031;DHT22;61072;47.808;7.636;2023-07-16T11:32:51;25.00;99.90
21031;DHT22;61072;47.808;7.636;2023-07-16T11:35:19;25.00;99.90
21031;DHT22;61072;47.808;7.636;2023-07-16T11:37:47;25.00;99.90
21031;DHT22;61072;47.808;7.636;2023-07-16T11:40:16;25.00;99.90
21031;DHT22;61072;47.808;7.636;2023-07-16T11:42:44;25.00;99.90
21031;DHT22;61072;47.808;7.636;2023-07-16T11:45:20;24.90;99.90
21031;DHT22;61072;47.808;7.636;2023-07-16T11:47:49;24.90;99.90
21031;DHT22;61072;47.808;7.636;2023-07-16T11:50:17;25.00;99.90
21031;DHT22;61072;47.808;7.636;2023-07-16T11:52:54;25.00;99.90
21031;DHT22;61072;47.808;7.636;2023-07-16T11:55:22;25.00;99.90
21031;DHT22;61072;47.808;7.636;2023-07-16T11:57:49;25.00;99.90
21031;DHT22;61072;47.808;7.636;2023-07-16T12:00:15;25.00;99.90
21031;DHT22;61072;47.808;7.636;2023-07-16T12:02:44;25.00;99.90
21031;DHT22;61072;47.808;7.636;2023-07-16T12:05:18;25.10;99.90
21031;DHT22;61072;47.808;7.636;2023-07-16T12:07:45;25.20;99.90
21031;DHT22;61072;47.808;7.636;2023-07-16T12:10:12;25.20;99.90
21031;DHT22;61072;47.808;7.636;2023-07-16T12:12:39;25.30;99.90
21031;DHT22;61072;47.808;7.636;2023-07-16T12:15:07;25.30;99.90
21031;DHT22;61072;47.808;7.636;2023-07-16T12:17:34;25.30;99.90
21031;DHT22;61072;47.808;7.636;2023-07-16T12:20:02;25.20;99.90
21031;DHT22;61072;47.808;7.636;2023-07-16T12:22:30;25.20;99.90
21031;DHT22;61072;47.808;7.636;2023-07-16T12:24:58;25.30;99.90
21031;DHT22;61072;47.808;7.636;2023-07-16T12:27:25;25.30;99.90
21031;DHT22;61072;47.808;7.636;2023-07-16T12:29:51;25.30;99.90
21031;DHT22;61072;47.808;7.636;2023-07-16T12:32:19;25.30;99.90
21031;DHT22;61072;47.808;7.636;2023-07-16T12:34:47;25.30;99.90
21031;DHT22;61072;47.808;7.636;2023-07-16T12:37:14;25.20;99.90
21031;DHT22;61072;47.808;7.636;2023-07-16T12:39:40;25.10;99.90
21031;DHT22;61072;47.808;7.636;2023-07-16T12:42:07;25.00;99.90
21031;DHT22;61072;47.808;7.636;2023-07-16T12:44:34;24.90;99.90
21031;DHT22;61072;47.808;7.636;2023-07-16T12:47:01;24.90;99.90
21031;DHT22;61072;47.808;7.636;2023-07-16T12:49:28;24.90;99.90
21031;DHT22;61072;47.808;7.636;2023-07-16T12:51:54;24.90;99.90
21031;DHT22;61072;47.808;7.636;2023-07-16T12:54:21;24.90;99.90
21031;DHT22;61072;47.808;7.636;2023-07-16T12:56:48;25.00;99.90
21031;DHT22;61072;47.808;7.636;2023-07-16T12:59:15;25.00;99.90
21031;DHT22;61072;47.808;7.636;2023-07-16T13:01:41;24.90;99.90
21031;DHT22;61072;47.808;7.636;2023-07-16T13:04:08;25.00;99.90
21031;DHT22;61072;47.808;7.636;2023-07-16T13:06:35;24.90;99.90
21031;DHT22;61072;47.808;7.636;2023-07-16T13:09:02;24.90;99.90
21031;DHT22;61072;47.808;7.636;2023-07-16T13:11:28;25.00;99.90
21031;DHT22;61072;47.808;7.636;2023-07-16T13:13:55;24.90;99.90
21031;DHT22;61072;47.808;7.636;2023-07-16T13:16:22;25.00;99.90
21031;DHT22;61072;47.808;7.636;2023-07-16T13:18:49;24.90;99.90
21031;DHT22;61072;47.808;7.636;2023-07-16T13:21:15;25.00;99.90
21031;DHT22;61072;47.808;7.636;2023-07-16T13:23:42;25.00;99.90
21031;DHT22;61072;47.808;7.636;2023-07-16T13:26:09;25.00;99.90
21031;DHT22;61072;47.808;7.636;2023-07-16T13:28:36;24.90;99.90
21031;DHT22;61072;47.808;7.636;2023-07-16T13:31:02;24.90;99.90
21031;DHT22;61072;47.808;7.636;2023-07-16T13:33:29;24.80;99.90
21031;DHT22;61072;47.808;7.636;2023-07-16T13:35:57;24.80;99.90
21031;DHT22;61072;47.808;7.636;2023-07-16T13:38:26;24.80;99.90
21031;DHT22;61072;47.808;7.636;2023-07-16T13:40:53;24.80;99.90
21031;DHT22;61072;47.808;7.636;2023-07-16T13:43:20;24.80;99.90
21031;DHT22;61072;47.808;7.636;2023-07-16T13:45:46;24.80;99.90
21031;DHT22;61072;47.808;7.636;2023-07-16T13:48:13;24.70;99.90
21031;DHT22;61072;47.808;7.636;2023-07-16T13:50:40;24.70;99.90
21031;DHT22;61072;47.808;7.636;2023-07-16T13:53:07;24.70;99.90
21031;DHT22;61072;47.808;7.636;2023-07-16T13:55:33;24.70;99.90
21031;DHT22;61072;47.808;7.636;2023-07-16T13:58:00;24.60;99.90
21031;DHT22;61072;47.808;7.636;2023-07-16T14:00:27;24.60;99.90
21031;DHT22;61072;47.808;7.636;2023-07-16T14:02:54;24.60;99.90
21031;DHT22;61072;47.808;7.636;2023-07-16T14:05:21;24.70;99.90
21031;DHT22;61072;47.808;7.636;2023-07-16T14:07:48;24.70;99.90
21031;DHT22;61072;47.808;7.636;2023-07-16T14:10:16;24.60;99.90
21031;DHT22;61072;47.808;7.636;2023-07-16T14:12:43;24.60;99.90
21031;DHT22;61072;47.808;7.636;2023-07-16T14:15:09;24.60;99.90
21031;DHT22;61072;47.808;7.636;2023-07-16T14:17:36;24.70;99.90
21031;DHT22;61072;47.808;7.636;2023-07-16T14:20:03;24.70;99.90
21031;DHT22;61072;47.808;7.636;2023-07-16T14:22:30;24.70;99.90
21031;DHT22;61072;47.808;7.636;2023-07-16T14:24:57;24.70;99.90
21031;DHT22;61072;47.808;7.636;2023-07-16T14:27:24;24.80;99.90
21031;DHT22;61072;47.808;7.636;2023-07-16T14:29:50;24.80;99.90
21031;DHT22;61072;47.808;7.636;2023-07-16T14:32:31;24.70;99.90
21031;DHT22;61072;47.808;7.636;2023-07-16T14:34:58;24.70;99.90
21031;DHT22;61072;47.808;7.636;2023-07-16T14:37:26;24.80;99.90
21031;DHT22;61072;47.808;7.636;2023-07-16T14:39:53;24.80;99.90
21031;DHT22;61072;47.808;7.636;2023-07-16T14:42:20;24.70;99.90
21031;DHT22;61072;47.808;7.636;2023-07-16T14:44:47;24.70;99.90
21031;DHT22;61072;47.808;7.636;2023-07-16T14:47:13;24.80;99.90
21031;DHT22;61072;47.808;7.636;2023-07-16T14:49:40;24.80;99.90
21031;DHT22;61072;47.808;7.636;2023-07-16T14:52:07;24.80;99.90
21031;DHT22;61072;47.808;7.636;2023-07-16T14:54:34;24.80;99.90
21031;DHT22;61072;47.808;7.636;2023-07-16T14:57:02;24.90;99.90
21031;DHT22;61072;47.808;7.636;2023-07-16T14:59:29;24.90;99.90
21031;DHT22;61072;47.808;7.636;2023-07-16T15:01:56;24.90;99.90
21031;DHT22;61072;47.808;7.636;2023-07-16T15:04:23;24.90;99.90
21031;DHT22;61072;47.808;7.636;2023-07-16T15:06:50;25.00;99.90
21031;DHT22;61072;47.808;7.636;2023-07-16T15:09:17;25.00;99.90
21031;DHT22;61072;47.808;7.636;2023-07-16T15:11:44;25.10;99.90
21031;DHT22;61072;47.808;7.636;2023-07-16T15:14:10;25.20;99.90
21031;DHT22;61072;47.808;7.636;2023-07-16T15:16:39;25.30;99.90
21031;DHT22;61072;47.808;7.636;2023-07-16T15:19:06;25.40;99.90
21031;DHT22;61072;47.808;7.636;2023-07-16T15:21:34;25.50;99.90
21031;DHT22;61072;47.808;7.636;2023-07-16T15:24:05;25.70;99.90
21031;DHT22;61072;47.808;7.636;2023-07-16T15:26:32;25.70;99.90
21031;DHT22;61072;47.808;7.636;2023-07-16T15:28:58;25.80;99.90
21031;DHT22;61072;47.808;7.636;2023-07-16T15:31:25;25.90;99.90
21031;DHT22;61072;47.808;7.636;2023-07-16T15:33:55;25.90;99.90
21031;DHT22;61072;47.808;7.636;2023-07-16T15:36:23;25.90;99.90
21031;DHT22;61072;47.808;7.636;2023-07-16T15:38:49;25.80;99.90
21031;DHT22;61072;47.808;7.636;2023-07-16T15:41:17;25.80;99.90
21031;DHT22;61072;47.808;7.636;2023-07-16T15:43:50;25.70;99.90
21031;DHT22;61072;47.808;7.636;2023-07-16T15:46:17;25.70;99.90
21031;DHT22;61072;47.808;7.636;2023-07-16T15:48:45;25.70;99.90
21031;DHT22;61072;47.808;7.636;2023-07-16T15:51:13;25.80;99.90
21031;DHT22;61072;47.808;7.636;2023-07-16T15:53:41;25.70;99.90
21031;DHT22;61072;47.808;7.636;2023-07-16T15:56:11;25.70;99.90
21031;DHT22;61072;47.808;7.636;2023-07-16T15:58:38;25.70;99.90
21031;DHT22;61072;47.808;7.636;2023-07-16T16:01:05;25.70;99.90
21031;DHT22;61072;47.808;7.636;2023-07-16T16:03:33;25.70;99.90
21031;DHT22;61072;47.808;7.636;2023-07-16T16:06:00;25.80;99.90
21031;DHT22;61072;47.808;7.636;2023-07-16T16:08:26;25.80;99.90
21031;DHT22;61072;47.808;7.636;2023-07-16T16:10:53;25.80;99.90
21031;DHT22;61072;47.808;7.636;2023-07-16T16:13:22;25.80;99.90
21031;DHT22;61072;47.808;7.636;2023-07-16T16:15:49;25.90;99.90
21031;DHT22;61072;47.808;7.636;2023-07-16T16:18:16;25.90;99.90
21031;DHT22;61072;47.808;7.636;2023-07-16T16:20:45;25.90;99.90
21031;DHT22;61072;47.808;7.636;2023-07-16T16:23:13;26.00;99.90
21031;DHT22;61072;47.808;7.636;2023-07-16T16:25:40;26.00;99.90
21031;DHT22;61072;47.808;7.636;2023-07-16T16:28:07;26.10;99.90
21031;DHT22;61072;47.808;7.636;2023-07-16T16:30:35;26.10;99.90
21031;DHT22;61072;47.808;7.636;2023-07-16T16:33:03;26.20;99.90
21031;DHT22;61072;47.808;7.636;2023-07-16T16:35:39;26.30;99.90
21031;DHT22;61072;47.808;7.636;2023-07-16T16:38:09;26.30;99.90
21031;DHT22;61072;47.808;7.636;2023-07-16T16:40:36;26.30;99.90
21031;DHT22;61072;47.808;7.636;2023-07-16T16:43:05;26.30;99.90
21031;DHT22;61072;47.808;7.636;2023-07-16T16:45:31;26.30;99.90
21031;DHT22;61072;47.808;7.636;2023-07-16T16:48:03;26.30;99.90
21031;DHT22;61072;47.808;7.636;2023-07-16T16:50:30;26.30;99.90
21031;DHT22;61072;47.808;7.636;2023-07-16T16:52:57;26.20;99.90
21031;DHT22;61072;47.808;7.636;2023-07-16T16:55:26;26.20;99.90
21031;DHT22;61072;47.808;7.636;2023-07-16T16:57:53;26.10;99.90
21031;DHT22;61072;47.808;7.636;2023-07-16T17:00:20;26.00;99.90
21031;DHT22;61072;47.808;7.636;2023-07-16T17:02:47;26.00;99.90
21031;DHT22;61072;47.808;7.636;2023-07-16T17:05:14;26.00;99.90
21031;DHT22;61072;47.808;7.636;2023-07-16T17:07:41;26.00;99.90
21031;DHT22;61072;47.808;7.636;2023-07-16T17:10:08;26.00;99.90
21031;DHT22;61072;47.808;7.636;2023-07-16T17:12:35;25.90;99.90
21031;DHT22;61072;47.808;7.636;2023-07-16T17:15:05;25.90;99.90
21031;DHT22;61072;47.808;7.636;2023-07-16T17:17:32;25.90;99.90
21031;DHT22;61072;47.808;7.636;2023-07-16T17:19:59;25.90;99.90
21031;DHT22;61072;47.808;7.636;2023-07-16T17:22:25;25.80;99.90
21031;DHT22;61072;47.808;7.636;2023-07-16T17:24:53;25.70;99.90
21031;DHT22;61072;47.808;7.636;2023-07-16T17:27:20;25.60;99.90
21031;DHT22;61072;47.808;7.636;2023-07-16T17:29:47;25.50;99.90
21031;DHT22;61072;47.808;7.636;2023-07-16T17:32:15;25.50;99.90
21031;DHT22;61072;47.808;7.636;2023-07-16T17:34:41;25.50;99.90
21031;DHT22;61072;47.808;7.636;2023-07-16T17:37:08;25.30;99.90
21031;DHT22;61072;47.808;7.636;2023-07-16T17:39:38;25.30;99.90
21031;DHT22;61072;47.808;7.636;2023-07-16T17:42:05;25.30;99.90
21031;DHT22;61072;47.808;7.636;2023-07-16T17:44:32;25.30;99.90
21031;DHT22;61072;47.808;7.636;2023-07-16T17:46:59;25.30;99.90
21031;DHT22;61072;47.808;7.636;2023-07-16T17:49:26;25.30;99.90
21031;DHT22;61072;47.808;7.636;2023-07-16T17:51:54;25.20;99.90
21031;DHT22;61072;47.808;7.636;2023-07-16T17:54:21;25.20;99.90
21031;DHT22;61072;47.808;7.636;2023-07-16T17:56:49;25.10;99.90
21031;DHT22;61072;47.808;7.636;2023-07-16T17:59:19;25.10;99.90
21031;DHT22;61072;47.808;7.636;2023-07-16T18:01:47;25.10;99.90
21031;DHT22;61072;47.808;7.636;2023-07-16T18:04:15;25.10;99.90
21031;DHT22;61072;47.808;7.636;2023-07-16T18:06:42;25.10;99.90
21031;DHT22;61072;47.808;7.636;2023-07-16T18:09:11;25.10;99.90
21031;DHT22;61072;47.808;7.636;2023-07-16T18:11:38;25.10;99.90
21031;DHT22;61072;47.808;7.636;2023-07-16T18:14:08;25.10;99.90
21031;DHT22;61072;47.808;7.636;2023-07-16T18:16:38;25.10;99.90
21031;DHT22;61072;47.808;7.636;2023-07-16T18:19:06;25.10;99.90
21031;DHT22;61072;47.808;7.636;2023-07-16T18:21:33;25.00;99.90
21031;DHT22;61072;47.808;7.636;2023-07-16T18:24:18;25.00;99.90
21031;DHT22;61072;47.808;7.636;2023-07-16T18:26:44;25.00;99.90
21031;DHT22;61072;47.808;7.636;2023-07-16T18:29:12;24.90;99.90
21031;DHT22;61072;47.808;7.636;2023-07-16T18:31:38;24.90;99.90
21031;DHT22;61072;47.808;7.636;2023-07-16T18:34:05;24.90;99.90
21031;DHT22;61072;47.808;7.636;2023-07-16T18:36:32;24.90;99.90
21031;DHT22;61072;47.808;7.636;2023-07-16T18:38:59;24.80;99.90
21031;DHT22;61072;47.808;7.636;2023-07-16T18:41:27;24.80;99.90
21031;DHT22;61072;47.808;7.636;2023-07-16T18:43:53;24.80;99.90
21031;DHT22;61072;47.808;7.636;2023-07-16T18:46:20;24.80;99.90
21031;DHT22;61072;47.808;7.636;2023-07-16T18:48:48;24.80;99.90
21031;DHT22;61072;47.808;7.636;2023-07-16T18:51:14;24.70;99.90
21031;DHT22;61072;47.808;7.636;2023-07-16T18:53:41;24.70;99.90
21031;DHT22;61072;47.808;7.636;2023-07-16T18:56:08;24.70;99.90
21031;DHT22;61072;47.808;7.636;2023-07-16T18:58:35;24.60;99.90
21031;DHT22;61072;47.808;7.636;2023-07-16T19:01:01;24.60;99.90
21031;DHT22;61072;47.808;7.636;2023-07-16T19:03:28;24.50;99.90
21031;DHT22;61072;47.808;7.636;2023-07-16T19:05:55;24.50;99.90
21031;DHT22;61072;47.808;7.636;2023-07-16T19:08:22;24.50;99.90
21031;DHT22;61072;47.808;7.636;2023-07-16T19:10:50;24.40;99.90
21031;DHT22;61072;47.808;7.636;2023-07-16T19:13:17;24.40;99.90
21031;DHT22;61072;47.808;7.636;2023-07-16T19:15:44;24.40;99.90
21031;DHT22;61072;47.808;7.636;2023-07-16T19:18:11;24.40;99.90
21031;DHT22;61072;47.808;7.636;2023-07-16T19:20:37;24.30;99.90
21031;DHT22;61072;47.808;7.636;2023-07-16T19:23:04;24.30;99.90
21031;DHT22;61072;47.808;7.636;2023-07-16T19:25:31;24.30;99.90
21031;DHT22;61072;47.808;7.636;2023-07-16T19:27:58;24.20;99.90
21031;DHT22;61072;47.808;7.636;2023-07-16T19:30:25;24.20;99.90
21031;DHT22;61072;47.808;7.636;2023-07-16T19:32:51;24.10;99.90
21031;DHT22;61072;47.808;7.636;2023-07-16T19:35:18;24.10;99.90
21031;DHT22;61072;47.808;7.636;2023-07-16T19:37:45;24.00;99.90
21031;DHT22;61072;47.808;7.636;2023-07-16T19:40:12;24.00;99.90
21031;DHT22;61072;47.808;7.636;2023-07-16T19:42:39;24.00;99.90
21031;DHT22;61072;47.808;7.636;2023-07-16T19:45:07;23.90;99.90
21031;DHT22;61072;47.808;7.636;2023-07-16T19:47:34;23.90;99.90
21031;DHT22;61072;47.808;7.636;2023-07-16T19:50:00;23.90;99.90
21031;DHT22;61072;47.808;7.636;2023-07-16T19:52:32;23.80;99.90
21031;DHT22;61072;47.808;7.636;2023-07-16T19:54:59;23.80;99.90
21031;DHT22;61072;47.808;7.636;2023-07-16T19:57:28;23.70;99.90
21031;DHT22;61072;47.808;7.636;2023-07-16T20:00:00;23.70;99.90
21031;DHT22;61072;47.808;7.636;2023-07-16T20:02:27;23.60;99.90
21031;DHT22;61072;47.808;7.636;2023-07-16T20:04:54;23.60;99.90
21031;DHT22;61072;47.808;7.636;2023-07-16T20:07:21;23.50;99.90
21031;DHT22;61072;47.808;7.636;2023-07-16T20:09:48;23.40;99.90
21031;DHT22;61072;47.808;7.636;2023-07-16T20:12:17;23.40;99.90
21031;DHT22;61072;47.808;7.636;2023-07-16T20:14:45;23.30;99.90
21031;DHT22;61072;47.808;7.636;2023-07-16T20:17:12;23.30;99.90
21031;DHT22;61072;47.808;7.636;2023-07-16T20:19:39;23.20;99.90
